Airfield :
LOGIN :

Register | Disclaimer

   EN    FR    IT 

 










Legend :    VFR   Marginal VFR   IFR   Intensive IFR   Very Intensive IFR
Visi :
Ceiling :
>= 8 km
>= 3000ft
5 to 8 km
1000 to 3000 ft
1500m to 5 km
500 to 1000 ft
800 to 1500m
200 to 500 ft
< 800m
< 200 ft
Symbols :   Thunderstorms  Fog  Heavy snow  Heavy precipitations  Wind > 20 kt
SIGMETs :     Misc.  Thunderstorms  Icing  Turbulence  Mountain Waves  Volcanic Ashes






- Airport Elevation : 1071 ft
- IATA code : LWO


UKLL - L'viv

CURRENT METAR :
  • 091430Z 29005MPS CAVOK 21/M05 Q1017 R31/CLRD// NOSIG

EXPIRED METARs :
  • 091400Z 29005MPS 250V330 CAVOK 22/M05 Q1017 R31/D NOSIG
  • 091330Z 27005MPS 230V310 CAVOK 22/M04 Q1018 R31/CLRD// NOSIG
  • 091300Z 25006MPS 210V280 CAVOK 22/M02 Q1018 R31/CLRD// NOSIG
  • 091230Z 24006MPS 200V270 CAVOK 21/M03 Q1018 R31/D NOSIG
  • 091200Z 27004MPS 230V300 CAVOK 21/M03 Q1019 R31/CLRD// NOSIG

TAF TAF UKLL
Valid from the 09 at 12:00 until the 10 at 12:00 UTC


091103Z 0912/1012 26004MPS 9999 SCT030
TEMPO 0912/0923 29006G12MPS
BECMG 0923/1001 33004MPS
TEMPO 1001/1012 36006G12MPS 3000 -SHRA BR BKN010 BKN025CB



MET'MAP, your aeronautical weather chart ! - Copyright ORBIFLY December 2007 - Disclaimer

ORBIFLY MET'MAP TEAM :

Programming & Development : Alexandra Zaïnal
Concept & original design : Baudouin d'Aumeries
Assistance for programming : Marc-Olivier Méhu
Technical & hardware support : Manuel Goepfert

Contact : metmap@orbifly.com




SOURCES & CREDITS :

   NOAA